createdAt,value
2018-08-23T00:00:45.894Z,24.50
2018-08-23T00:03:19.424Z,24.50
2018-08-23T00:05:52.671Z,24.50
2018-08-23T00:08:21.218Z,24.40
2018-08-23T00:10:49.935Z,24.40
2018-08-23T00:13:18.610Z,24.40
2018-08-23T00:15:46.706Z,24.30
2018-08-23T00:18:14.775Z,24.30
2018-08-23T00:20:42.860Z,24.30
2018-08-23T00:23:10.946Z,24.20
2018-08-23T00:25:39.268Z,24.20
2018-08-23T00:28:07.882Z,24.20
2018-08-23T00:30:36.336Z,24.20
2018-08-23T00:33:05.135Z,24.10
2018-08-23T00:35:34.532Z,24.10
2018-08-23T00:38:03.235Z,24.00
2018-08-23T00:40:35.541Z,24.00
2018-08-23T00:43:05.002Z,24.00
2018-08-23T00:45:33.090Z,23.90
2018-08-23T00:48:01.185Z,23.70
2018-08-23T00:51:01.246Z,23.60
2018-08-23T00:53:30.672Z,23.50
2018-08-23T00:56:15.740Z,23.50
2018-08-23T00:58:49.732Z,23.50
2018-08-23T01:01:17.845Z,23.60
2018-08-23T01:03:45.938Z,23.50
2018-08-23T01:06:18.002Z,23.50
2018-08-23T01:08:46.348Z,23.50
2018-08-23T01:11:14.426Z,23.50
2018-08-23T01:13:42.548Z,23.50
2018-08-23T01:16:12.422Z,23.50
2018-08-23T01:18:41.011Z,23.50
2018-08-23T01:21:09.737Z,23.50
2018-08-23T01:23:38.544Z,23.40
2018-08-23T01:26:07.409Z,23.40
2018-08-23T01:28:35.505Z,23.40
2018-08-23T01:31:21.586Z,23.30
2018-08-23T01:33:52.625Z,23.30
2018-08-23T01:36:39.358Z,23.20
2018-08-23T01:39:09.257Z,23.10
2018-08-23T01:41:37.337Z,23.20
2018-08-23T01:44:05.449Z,23.20
2018-08-23T01:46:38.871Z,23.10
2018-08-23T01:49:07.036Z,23.10
2018-08-23T01:51:35.228Z,23.10
2018-08-23T01:54:03.339Z,23.10
2018-08-23T01:56:31.424Z,23.00
2018-08-23T01:58:59.530Z,23.00
2018-08-23T02:01:27.997Z,22.90
2018-08-23T02:03:56.085Z,22.90
2018-08-23T02:06:29.696Z,23.00
2018-08-23T02:08:57.797Z,23.00
2018-08-23T02:11:25.902Z,23.00
2018-08-23T02:13:53.979Z,23.00
2018-08-23T02:16:22.072Z,23.00
2018-08-23T02:18:50.161Z,23.00
2018-08-23T02:21:18.245Z,23.00
2018-08-23T02:23:47.734Z,23.00
2018-08-23T02:26:15.892Z,23.00
2018-08-23T02:28:45.029Z,23.00
2018-08-23T02:31:13.140Z,23.00
2018-08-23T02:33:41.233Z,23.00
2018-08-23T02:36:15.649Z,23.00
2018-08-23T02:38:44.665Z,23.00
2018-08-23T02:41:12.757Z,23.00
2018-08-23T02:43:40.878Z,23.00
2018-08-23T02:46:08.973Z,23.00
2018-08-23T02:48:37.069Z,23.00
2018-08-23T02:51:05.358Z,23.00
2018-08-23T02:53:34.645Z,23.00
2018-08-23T02:56:05.860Z,22.70
2018-08-23T02:58:37.266Z,22.50
2018-08-23T03:01:05.780Z,22.50
2018-08-23T03:03:34.869Z,22.50
2018-08-23T03:06:02.961Z,22.50
2018-08-23T03:08:42.291Z,22.50
2018-08-23T03:11:10.368Z,22.60
2018-08-23T03:13:43.046Z,22.50
2018-08-23T03:16:11.133Z,22.60
2018-08-23T03:18:39.209Z,22.50
2018-08-23T03:21:08.184Z,22.50
2018-08-23T03:23:36.262Z,22.50
2018-08-23T03:26:04.378Z,22.40
2018-08-23T03:28:34.420Z,22.20
2018-08-23T03:31:03.422Z,22.10
2018-08-23T03:33:33.132Z,22.10
2018-08-23T03:36:01.210Z,22.10
2018-08-23T03:38:29.301Z,22.20
2018-08-23T03:40:57.554Z,22.10
2018-08-23T03:43:25.620Z,22.00
2018-08-23T03:45:57.137Z,22.00
2018-08-23T03:48:25.228Z,22.10
2018-08-23T03:50:53.836Z,22.10
2018-08-23T03:53:22.492Z,22.20
2018-08-23T03:56:06.145Z,22.10
2018-08-23T03:58:34.622Z,22.00
2018-08-23T04:01:03.996Z,22.00
2018-08-23T04:03:32.421Z,21.90
2018-08-23T04:06:17.300Z,21.80
2018-08-23T04:08:46.166Z,21.80
2018-08-23T04:11:14.258Z,21.70
2018-08-23T04:13:42.354Z,21.70
2018-08-23T04:16:10.921Z,21.70
2018-08-23T04:18:39.023Z,21.60
2018-08-23T04:21:07.150Z,21.60
2018-08-23T04:23:35.237Z,21.50
2018-08-23T04:26:03.341Z,21.50
2018-08-23T04:28:31.440Z,21.50
2018-08-23T04:30:59.549Z,21.60
2018-08-23T04:33:27.641Z,21.60
2018-08-23T04:35:55.750Z,21.70
2018-08-23T04:38:23.834Z,21.80
2018-08-23T04:40:55.168Z,21.80
2018-08-23T04:43:23.365Z,21.80
2018-08-23T04:45:51.365Z,21.80
2018-08-23T04:48:19.466Z,21.70
2018-08-23T04:50:47.577Z,21.80
2018-08-23T04:53:15.666Z,21.70
2018-08-23T04:55:43.762Z,21.70
2018-08-23T04:58:12.593Z,21.70
2018-08-23T05:00:40.680Z,21.70
2018-08-23T05:03:08.782Z,21.80
2018-08-23T05:05:36.871Z,21.80
2018-08-23T05:08:05.155Z,21.80
2018-08-23T05:10:33.245Z,21.80
2018-08-23T05:13:01.344Z,21.70
2018-08-23T05:15:29.460Z,21.60
2018-08-23T05:17:57.554Z,21.70
2018-08-23T05:20:25.633Z,21.60
2018-08-23T05:23:08.319Z,21.70
2018-08-23T05:25:36.389Z,21.60
2018-08-23T05:28:11.578Z,21.60
2018-08-23T05:30:40.704Z,21.70
2018-08-23T05:33:13.633Z,21.60
2018-08-23T05:35:41.777Z,21.60
2018-08-23T05:38:10.588Z,21.70
2018-08-23T05:40:51.450Z,21.70
2018-08-23T05:43:19.569Z,21.70
2018-08-23T05:45:55.381Z,21.70
2018-08-23T05:48:31.814Z,21.80
2018-08-23T05:51:06.885Z,21.90
2018-08-23T05:53:39.827Z,21.90
2018-08-23T05:56:08.540Z,21.90
2018-08-23T05:58:36.657Z,21.90
2018-08-23T06:01:04.754Z,21.90
2018-08-23T06:03:32.844Z,21.90
2018-08-23T06:06:00.928Z,22.00
2018-08-23T06:08:29.024Z,22.00
2018-08-23T06:11:04.306Z,22.10
2018-08-23T06:13:32.384Z,22.10
2018-08-23T06:16:00.505Z,22.30
2018-08-23T06:18:28.798Z,22.40
2018-08-23T06:20:56.877Z,22.40
2018-08-23T06:23:32.238Z,22.50
2018-08-23T06:26:00.317Z,22.60
2018-08-23T06:28:28.669Z,22.70
2018-08-23T06:30:57.887Z,22.70
2018-08-23T06:33:38.993Z,22.80
2018-08-23T06:36:08.195Z,22.90
2018-08-23T06:38:37.092Z,23.00
2018-08-23T06:41:06.498Z,23.00
2018-08-23T06:43:35.084Z,23.10
2018-08-23T06:46:03.916Z,23.10
2018-08-23T06:48:32.161Z,23.20
2018-08-23T06:51:01.249Z,23.20
2018-08-23T06:53:36.591Z,23.30
2018-08-23T06:56:04.658Z,23.40
2018-08-23T06:58:33.005Z,23.40
2018-08-23T07:01:02.822Z,23.40
2018-08-23T07:03:30.912Z,23.50
2018-08-23T07:05:59.060Z,23.50
2018-08-23T07:08:27.136Z,23.60
2018-08-23T07:11:10.773Z,23.60
2018-08-23T07:13:38.871Z,23.70
2018-08-23T07:16:06.957Z,23.80
2018-08-23T07:18:35.066Z,23.90
2018-08-23T07:21:03.157Z,24.00
2018-08-23T07:23:34.829Z,24.00
2018-08-23T07:26:04.981Z,24.20
2018-08-23T07:28:33.434Z,24.40
2018-08-23T07:31:01.517Z,24.50
2018-08-23T07:33:31.322Z,24.60
2018-08-23T07:36:12.889Z,24.60
2018-08-23T07:38:40.983Z,24.70
2018-08-23T07:41:09.066Z,24.80
2018-08-23T07:43:37.293Z,24.90
2018-08-23T07:46:05.627Z,24.90
2018-08-23T07:48:33.911Z,24.80
2018-08-23T07:51:08.234Z,24.90
2018-08-23T07:53:36.338Z,24.80
2018-08-23T07:56:22.336Z,24.80
2018-08-23T07:58:53.285Z,24.90
2018-08-23T08:01:26.368Z,25.00
2018-08-23T08:03:54.599Z,24.90
2018-08-23T08:06:24.661Z,25.00
2018-08-23T08:08:54.289Z,25.00
2018-08-23T08:11:22.379Z,25.00
2018-08-23T08:13:55.668Z,25.10
2018-08-23T08:16:25.229Z,25.00
2018-08-23T08:18:53.326Z,25.00
2018-08-23T08:21:21.417Z,25.10
2018-08-23T08:23:56.254Z,25.10
2018-08-23T08:26:25.670Z,25.20
2018-08-23T08:28:53.751Z,25.30
2018-08-23T08:31:21.850Z,25.40
2018-08-23T08:33:49.937Z,25.40
2018-08-23T08:36:18.052Z,25.50
2018-08-23T08:38:46.137Z,25.60
2018-08-23T08:41:14.238Z,25.70
2018-08-23T08:43:43.534Z,25.80
2018-08-23T08:46:11.642Z,25.90
2018-08-23T08:48:39.740Z,25.90
2018-08-23T08:51:32.001Z,25.90
2018-08-23T08:54:01.670Z,26.00
2018-08-23T08:56:34.820Z,26.00
2018-08-23T08:59:02.984Z,26.10
2018-08-23T09:01:31.361Z,26.30
2018-08-23T09:03:59.534Z,26.40
2018-08-23T09:06:31.402Z,26.40
2018-08-23T09:09:02.538Z,26.50
2018-08-23T09:11:30.616Z,26.60
2018-08-23T09:14:01.029Z,26.70
2018-08-23T09:16:29.108Z,26.80
2018-08-23T09:18:59.933Z,26.80
2018-08-23T09:21:28.174Z,26.90
2018-08-23T09:23:56.248Z,27.10
2018-08-23T09:26:29.802Z,27.20
2018-08-23T09:28:57.877Z,27.30
2018-08-23T09:31:25.960Z,27.30
2018-08-23T09:33:54.053Z,27.40
2018-08-23T09:36:22.132Z,27.50
2018-08-23T09:38:50.219Z,27.50
2018-08-23T09:41:18.305Z,27.70
2018-08-23T09:43:46.386Z,27.70
2018-08-23T09:46:14.464Z,27.80
2018-08-23T09:48:42.541Z,27.90
2018-08-23T09:51:16.948Z,27.90
2018-08-23T09:53:45.009Z,28.00
2018-08-23T09:56:19.091Z,28.00
2018-08-23T09:58:48.407Z,28.00
2018-08-23T10:01:21.916Z,28.10
2018-08-23T10:03:55.506Z,28.10
2018-08-23T10:06:27.840Z,28.10
2018-08-23T10:09:14.985Z,28.20
2018-08-23T10:11:49.592Z,28.20
2018-08-23T10:14:22.842Z,28.20
2018-08-23T10:16:56.150Z,28.30
2018-08-23T10:19:29.698Z,28.30
2018-08-23T10:22:03.357Z,28.40
2018-08-23T10:24:33.625Z,28.50
2018-08-23T10:27:01.729Z,28.60
2018-08-23T10:29:29.813Z,28.70
2018-08-23T10:31:57.916Z,28.80
2018-08-23T10:34:26.109Z,28.80
2018-08-23T10:36:54.200Z,29.00
2018-08-23T10:39:22.296Z,29.10
2018-08-23T10:41:50.381Z,29.20
2018-08-23T10:44:18.459Z,29.40
2018-08-23T10:46:56.913Z,29.60
2018-08-23T10:49:25.697Z,29.60
2018-08-23T10:51:53.781Z,29.60
2018-08-23T10:54:21.856Z,29.60
2018-08-23T10:56:49.950Z,29.60
2018-08-23T10:59:18.038Z,29.70
2018-08-23T11:01:46.124Z,29.80
2018-08-23T11:04:14.200Z,29.80
2018-08-23T11:06:47.577Z,29.90
2018-08-23T11:09:20.969Z,30.00
2018-08-23T11:11:49.081Z,30.00
2018-08-23T11:14:22.446Z,30.10
2018-08-23T11:16:55.956Z,30.20
2018-08-23T11:19:29.409Z,30.40
2018-08-23T11:21:57.497Z,30.60
2018-08-23T11:24:25.582Z,30.80
2018-08-23T11:26:53.690Z,31.00
2018-08-23T11:29:22.736Z,31.20
2018-08-23T11:31:50.940Z,31.30
2018-08-23T11:34:19.021Z,31.40
2018-08-23T11:36:47.085Z,31.60
2018-08-23T11:39:15.165Z,31.60
2018-08-23T11:41:43.233Z,31.50
2018-08-23T11:44:11.313Z,31.40
2018-08-23T11:46:39.386Z,31.40
2018-08-23T11:49:07.461Z,31.40
2018-08-23T11:51:35.525Z,31.60
2018-08-23T11:54:03.610Z,31.60
2018-08-23T11:56:31.693Z,31.70
2018-08-23T11:58:59.842Z,31.70
2018-08-23T12:01:27.856Z,31.90
2018-08-23T12:03:55.934Z,32.00
2018-08-23T12:06:24.017Z,32.10
2018-08-23T12:08:52.097Z,32.00
2018-08-23T12:11:20.186Z,31.90
2018-08-23T12:13:50.221Z,32.00
2018-08-23T12:16:18.490Z,32.10
2018-08-23T12:18:46.569Z,32.20
2018-08-23T12:21:14.657Z,32.20
2018-08-23T12:23:42.745Z,32.20
2018-08-23T12:26:10.844Z,32.20
2018-08-23T12:28:44.148Z,32.30
2018-08-23T12:31:12.222Z,32.30
2018-08-23T12:33:40.538Z,32.30
2018-08-23T12:36:09.500Z,32.40
2018-08-23T12:38:43.138Z,32.50
2018-08-23T12:41:17.147Z,32.60
2018-08-23T12:43:52.784Z,32.80
2018-08-23T12:46:20.797Z,33.10
2018-08-23T12:48:53.134Z,33.60
2018-08-23T12:51:21.205Z,34.30
2018-08-23T12:53:49.294Z,35.10
2018-08-23T12:56:17.428Z,35.90
2018-08-23T12:58:45.480Z,36.20
2018-08-23T13:01:13.570Z,36.50
2018-08-23T13:03:41.672Z,37.10
2018-08-23T13:06:09.753Z,38.00
2018-08-23T13:08:37.876Z,38.70
2018-08-23T13:11:05.935Z,39.70
2018-08-23T13:13:34.003Z,40.20
2018-08-23T13:16:02.081Z,40.10
2018-08-23T13:18:30.169Z,39.90
2018-08-23T13:20:58.248Z,39.80
2018-08-23T13:23:26.336Z,39.10
2018-08-23T13:25:54.410Z,37.70
2018-08-23T13:28:22.838Z,36.50
2018-08-23T13:30:50.946Z,35.70
2018-08-23T13:33:19.042Z,35.10
2018-08-23T13:35:47.148Z,34.60
2018-08-23T13:38:15.230Z,34.50
2018-08-23T13:40:43.316Z,34.30
2018-08-23T13:43:11.398Z,34.30
2018-08-23T13:45:39.524Z,34.30
2018-08-23T13:48:07.946Z,34.30
2018-08-23T13:50:36.012Z,34.40
2018-08-23T13:53:04.086Z,34.30
2018-08-23T13:55:32.168Z,34.30
2018-08-23T13:58:00.262Z,33.90
2018-08-23T14:00:33.697Z,33.60
2018-08-23T14:03:01.785Z,33.20
2018-08-23T14:05:29.868Z,33.10
2018-08-23T14:07:57.945Z,33.10
2018-08-23T14:10:26.032Z,33.20
2018-08-23T14:12:54.163Z,33.50
2018-08-23T14:15:27.507Z,33.80
2018-08-23T14:17:55.700Z,34.10
2018-08-23T14:20:24.713Z,34.30
2018-08-23T14:22:52.784Z,34.40
2018-08-23T14:25:20.871Z,34.10
2018-08-23T14:27:48.949Z,33.90
2018-08-23T14:30:17.038Z,33.80
2018-08-23T14:32:45.149Z,33.70
2018-08-23T14:35:13.241Z,33.80
2018-08-23T14:37:41.522Z,33.90
2018-08-23T14:40:09.732Z,34.00
2018-08-23T14:42:37.941Z,34.10
2018-08-23T14:45:06.123Z,34.20
2018-08-23T14:47:39.786Z,34.20
2018-08-23T14:50:07.869Z,34.30
2018-08-23T14:52:36.053Z,34.30
2018-08-23T14:55:04.177Z,34.20
2018-08-23T14:57:33.141Z,34.00
2018-08-23T15:00:01.274Z,34.00
2018-08-23T15:02:29.362Z,34.00
2018-08-23T15:04:57.450Z,34.00
2018-08-23T15:07:25.526Z,33.90
2018-08-23T15:09:53.612Z,33.70
2018-08-23T15:12:21.685Z,33.70
2018-08-23T15:14:49.830Z,33.80
2018-08-23T15:17:17.898Z,33.90
2018-08-23T15:19:45.994Z,34.10
2018-08-23T15:22:14.153Z,33.90
2018-08-23T15:24:42.229Z,33.80
2018-08-23T15:27:10.413Z,33.90
2018-08-23T15:29:38.401Z,33.80
2018-08-23T15:32:06.496Z,33.90
2018-08-23T15:34:34.590Z,33.90
2018-08-23T15:37:02.665Z,33.80
2018-08-23T15:39:30.796Z,33.70
2018-08-23T15:41:58.830Z,33.60
2018-08-23T15:44:26.902Z,33.60
2018-08-23T15:46:54.994Z,33.60
2018-08-23T15:49:23.069Z,33.60
2018-08-23T15:51:51.153Z,33.70
2018-08-23T15:54:19.885Z,33.70
2018-08-23T15:56:47.964Z,33.70
2018-08-23T15:59:16.128Z,33.80
2018-08-23T16:01:44.250Z,33.80
2018-08-23T16:04:12.475Z,33.80
2018-08-23T16:06:40.548Z,33.90
2018-08-23T16:09:09.944Z,33.90
2018-08-23T16:11:38.096Z,34.00
2018-08-23T16:14:06.661Z,34.00
2018-08-23T16:16:40.130Z,34.00
2018-08-23T16:19:12.133Z,34.00
2018-08-23T16:21:41.130Z,34.00
2018-08-23T16:24:09.198Z,33.90
2018-08-23T16:26:42.625Z,33.90
2018-08-23T16:29:10.697Z,33.80
2018-08-23T16:31:38.785Z,33.90
2018-08-23T16:34:06.844Z,33.80
2018-08-23T16:36:34.917Z,33.80
2018-08-23T16:39:03.730Z,33.80
2018-08-23T16:41:31.809Z,33.70
2018-08-23T16:43:59.881Z,33.60
2018-08-23T16:46:27.966Z,33.60
2018-08-23T16:48:56.254Z,33.50
2018-08-23T16:51:24.347Z,33.40
2018-08-23T16:53:52.417Z,33.30
2018-08-23T16:56:20.506Z,33.20
2018-08-23T16:58:48.569Z,33.10
2018-08-23T17:01:16.658Z,33.00
2018-08-23T17:03:49.229Z,32.90
2018-08-23T17:06:17.382Z,32.70
2018-08-23T17:08:45.761Z,32.60
2018-08-23T17:11:13.848Z,32.40
2018-08-23T17:13:41.949Z,32.20
2018-08-23T17:16:15.486Z,32.10
2018-08-23T17:18:43.553Z,32.00
2018-08-23T17:21:11.633Z,31.80
2018-08-23T17:23:39.707Z,31.80
2018-08-23T17:26:07.785Z,31.70
2018-08-23T17:28:35.869Z,31.60
2018-08-23T17:31:03.941Z,31.50
2018-08-23T17:33:32.105Z,31.40
2018-08-23T17:36:00.177Z,31.30
2018-08-23T17:38:29.711Z,31.20
2018-08-23T17:40:57.777Z,31.20
2018-08-23T17:43:26.270Z,31.20
2018-08-23T17:45:54.350Z,31.10
2018-08-23T17:48:22.603Z,31.10
2018-08-23T17:50:50.645Z,31.10
2018-08-23T17:53:18.932Z,31.10
2018-08-23T17:55:47.055Z,31.00
2018-08-23T17:58:15.502Z,30.90
2018-08-23T18:00:43.578Z,30.90
2018-08-23T18:03:11.663Z,30.60
2018-08-23T18:05:39.916Z,30.40
2018-08-23T18:08:07.976Z,30.30
2018-08-23T18:10:36.029Z,30.20
2018-08-23T18:13:04.184Z,30.20
2018-08-23T18:15:37.470Z,30.00
2018-08-23T18:18:05.693Z,29.80
2018-08-23T18:20:33.789Z,29.60
2018-08-23T18:23:01.988Z,29.20
2018-08-23T18:25:30.467Z,28.90
2018-08-23T18:27:58.461Z,28.40
2018-08-23T18:30:26.627Z,28.00
2018-08-23T18:32:54.954Z,27.80
2018-08-23T18:35:23.071Z,27.70
2018-08-23T18:37:51.154Z,27.60
2018-08-23T18:40:19.424Z,27.40
2018-08-23T18:42:47.534Z,27.40
2018-08-23T18:45:15.778Z,27.20
2018-08-23T18:47:44.267Z,27.00
2018-08-23T18:50:12.338Z,26.90
2018-08-23T18:52:40.453Z,26.80
2018-08-23T18:55:08.542Z,26.70
2018-08-23T18:57:36.849Z,26.60
2018-08-23T19:00:06.091Z,26.60
2018-08-23T19:02:34.340Z,26.40
2018-08-23T19:05:02.426Z,26.30
2018-08-23T19:07:35.858Z,26.20
2018-08-23T19:10:03.990Z,26.20
2018-08-23T19:12:32.030Z,26.10
2018-08-23T19:15:00.109Z,26.10
2018-08-23T19:17:33.401Z,26.10
2018-08-23T19:20:01.476Z,26.00
2018-08-23T19:22:29.578Z,25.90
2018-08-23T19:24:57.822Z,25.80
2018-08-23T19:27:25.960Z,25.80
2018-08-23T19:29:54.046Z,25.70
2018-08-23T19:32:22.126Z,25.80
2018-08-23T19:34:50.205Z,25.80
2018-08-23T19:37:18.342Z,25.80
2018-08-23T19:39:46.401Z,25.80
2018-08-23T19:42:14.723Z,25.70
2018-08-23T19:44:48.282Z,25.60
2018-08-23T19:47:21.706Z,25.40
2018-08-23T19:49:51.005Z,25.10
2018-08-23T19:52:19.314Z,24.80
2018-08-23T19:54:47.411Z,24.60
2018-08-23T19:57:15.479Z,24.40
2018-08-23T19:59:43.586Z,24.30
2018-08-23T20:02:11.761Z,24.30
2018-08-23T20:04:40.781Z,24.30
2018-08-23T20:07:08.869Z,24.30
2018-08-23T20:09:37.081Z,24.40
2018-08-23T20:12:05.293Z,24.50
2018-08-23T20:14:33.389Z,24.50
2018-08-23T20:17:01.473Z,24.50
2018-08-23T20:19:29.602Z,24.50
2018-08-23T20:21:58.373Z,24.40
2018-08-23T20:24:27.178Z,24.30
2018-08-23T20:26:55.537Z,24.20
2018-08-23T20:29:23.870Z,24.10
2018-08-23T20:31:52.149Z,24.00
2018-08-23T20:34:20.349Z,23.90
2018-08-23T20:36:48.426Z,23.90
2018-08-23T20:39:16.774Z,23.60
2018-08-23T20:41:45.904Z,23.50
2018-08-23T20:44:13.991Z,23.40
2018-08-23T20:46:42.088Z,23.40
2018-08-23T20:49:10.538Z,23.30
2018-08-23T20:51:39.026Z,23.30
2018-08-23T20:54:07.906Z,23.20
2018-08-23T20:56:35.982Z,23.20
2018-08-23T20:59:04.204Z,23.10
2018-08-23T21:01:32.307Z,23.10
2018-08-23T21:04:00.456Z,23.10
2018-08-23T21:06:28.493Z,23.20
2018-08-23T21:08:56.570Z,23.20
2018-08-23T21:11:24.654Z,23.10
2018-08-23T21:13:52.733Z,23.10
2018-08-23T21:16:20.852Z,23.10
2018-08-23T21:18:48.925Z,23.10
2018-08-23T21:21:17.006Z,23.10
2018-08-23T21:23:45.077Z,23.00
2018-08-23T21:26:13.190Z,23.00
2018-08-23T21:28:41.260Z,22.90
2018-08-23T21:31:09.349Z,22.90
2018-08-23T21:33:37.433Z,22.90
2018-08-23T21:36:05.669Z,22.80
2018-08-23T21:38:33.749Z,22.80
2018-08-23T21:41:01.837Z,22.80
2018-08-23T21:43:29.914Z,22.80
2018-08-23T21:45:58.033Z,22.90
2018-08-23T21:48:26.119Z,22.80
2018-08-23T21:50:54.355Z,22.80
2018-08-23T21:53:22.428Z,22.80
2018-08-23T21:55:50.521Z,22.80
2018-08-23T21:58:18.592Z,22.70
2018-08-23T22:00:52.069Z,22.70
2018-08-23T22:03:20.146Z,22.60
2018-08-23T22:05:48.234Z,22.60
2018-08-23T22:08:16.305Z,22.60
2018-08-23T22:10:44.381Z,22.60
2018-08-23T22:13:12.450Z,22.70
2018-08-23T22:15:47.033Z,22.60
2018-08-23T22:18:15.410Z,22.60
2018-08-23T22:20:43.593Z,22.60
2018-08-23T22:23:11.846Z,22.60
2018-08-23T22:25:40.343Z,22.50
2018-08-23T22:28:08.926Z,22.40
2018-08-23T22:30:37.597Z,22.40
2018-08-23T22:33:06.165Z,22.50
2018-08-23T22:35:34.273Z,22.30
2018-08-23T22:38:02.535Z,22.30
2018-08-23T22:40:30.601Z,22.30
2018-08-23T22:42:58.703Z,22.30
2018-08-23T22:45:26.814Z,22.30
2018-08-23T22:47:55.108Z,22.30
2018-08-23T22:50:23.354Z,22.20
2018-08-23T22:52:51.434Z,22.20
2018-08-23T22:55:19.506Z,22.10
2018-08-23T22:57:47.629Z,22.00
2018-08-23T23:00:15.781Z,22.00
2018-08-23T23:02:43.867Z,22.00
2018-08-23T23:05:11.938Z,21.90
2018-08-23T23:07:40.008Z,21.70
2018-08-23T23:10:08.164Z,21.70
2018-08-23T23:12:36.251Z,21.70
2018-08-23T23:15:10.534Z,21.60
2018-08-23T23:17:38.625Z,21.60
2018-08-23T23:20:06.956Z,21.60
2018-08-23T23:22:35.045Z,21.50
2018-08-23T23:25:03.240Z,21.60
2018-08-23T23:27:31.824Z,21.50
2018-08-23T23:30:00.197Z,21.50
2018-08-23T23:32:28.316Z,21.50
2018-08-23T23:34:56.441Z,21.40
2018-08-23T23:37:25.236Z,21.40
2018-08-23T23:39:53.340Z,21.30
2018-08-23T23:42:21.437Z,21.30
2018-08-23T23:44:49.516Z,21.20
2018-08-23T23:47:17.601Z,21.20
2018-08-23T23:49:45.669Z,21.10
2018-08-23T23:52:13.763Z,21.00
2018-08-23T23:54:41.843Z,21.00
2018-08-23T23:57:09.925Z,20.90
2018-08-23T23:59:38.008Z,20.90
